sensor_id;sensor_type;location;lat;lon;timestamp;pressure;altitude;pressure_sealevel;temperature;humidity
19748;BME280;10032;51.386;12.516;2023-05-21T00:01:52;100403.59;;;15.70;100.00
19748;BME280;10032;51.386;12.516;2023-05-21T00:04:18;100398.38;;;15.69;100.00
19748;BME280;10032;51.386;12.516;2023-05-21T00:06:43;100401.13;;;15.69;100.00
19748;BME280;10032;51.386;12.516;2023-05-21T00:09:14;100395.94;;;15.67;100.00
19748;BME280;10032;51.386;12.516;2023-05-21T00:11:40;100393.72;;;15.69;100.00
19748;BME280;10032;51.386;12.516;2023-05-21T00:14:15;100391.00;;;15.64;100.00
19748;BME280;10032;51.386;12.516;2023-05-21T00:16:41;100392.09;;;15.68;100.00
19748;BME280;10032;51.386;12.516;2023-05-21T00:19:06;100388.25;;;15.69;100.00
19748;BME280;10032;51.386;12.516;2023-05-21T00:21:32;100394.31;;;15.61;100.00
19748;BME280;10032;51.386;12.516;2023-05-21T00:24:00;100389.38;;;15.58;100.00
19748;BME280;10032;51.386;12.516;2023-05-21T00:26:25;100391.06;;;15.54;100.00
19748;BME280;10032;51.386;12.516;2023-05-21T00:28:51;100390.22;;;15.49;100.00
19748;BME280;10032;51.386;12.516;2023-05-21T00:31:16;100382.03;;;15.49;100.00
19748;BME280;10032;51.386;12.516;2023-05-21T00:33:43;100384.50;;;15.50;100.00
19748;BME280;10032;51.386;12.516;2023-05-21T00:36:08;100374.09;;;15.47;100.00
19748;BME280;10032;51.386;12.516;2023-05-21T00:38:37;100373.31;;;15.42;100.00
19748;BME280;10032;51.386;12.516;2023-05-21T00:41:02;100379.84;;;15.41;100.00
19748;BME280;10032;51.386;12.516;2023-05-21T00:43:28;100380.41;;;15.38;100.00
19748;BME280;10032;51.386;12.516;2023-05-21T00:45:54;100382.31;;;15.42;100.00
19748;BME280;10032;51.386;12.516;2023-05-21T00:48:21;100380.16;;;15.39;100.00
19748;BME280;10032;51.386;12.516;2023-05-21T00:50:47;100376.31;;;15.35;100.00
19748;BME280;10032;51.386;12.516;2023-05-21T00:53:14;100377.41;;;15.34;100.00
19748;BME280;10032;51.386;12.516;2023-05-21T00:55:49;100379.59;;;15.37;100.00
19748;BME280;10032;51.386;12.516;2023-05-21T00:58:15;100385.31;;;15.31;100.00
19748;BME280;10032;51.386;12.516;2023-05-21T01:00:42;100376.56;;;15.29;100.00
19748;BME280;10032;51.386;12.516;2023-05-21T01:03:08;100374.09;;;15.27;100.00
19748;BME280;10032;51.386;12.516;2023-05-21T01:05:37;100373.03;;;15.28;100.00
19748;BME280;10032;51.386;12.516;2023-05-21T01:08:05;100364.53;;;15.30;100.00
19748;BME280;10032;51.386;12.516;2023-05-21T01:10:31;100363.75;;;15.29;100.00
19748;BME280;10032;51.386;12.516;2023-05-21T01:12:57;100363.19;;;15.27;100.00
19748;BME280;10032;51.386;12.516;2023-05-21T01:15:23;100360.75;;;15.26;100.00
19748;BME280;10032;51.386;12.516;2023-05-21T01:17:50;100355.00;;;15.22;100.00
19748;BME280;10032;51.386;12.516;2023-05-21T01:20:16;100352.00;;;15.24;100.00
19748;BME280;10032;51.386;12.516;2023-05-21T01:22:53;100357.72;;;15.17;100.00
19748;BME280;10032;51.386;12.516;2023-05-21T01:25:21;100355.03;;;15.12;100.00
19748;BME280;10032;51.386;12.516;2023-05-21T01:27:47;100347.91;;;15.06;100.00
19748;BME280;10032;51.386;12.516;2023-05-21T01:30:14;100349.28;;;14.99;100.00
19748;BME280;10032;51.386;12.516;2023-05-21T01:32:55;100340.56;;;14.97;100.00
19748;BME280;10032;51.386;12.516;2023-05-21T01:35:45;100345.22;;;14.86;100.00
19748;BME280;10032;51.386;12.516;2023-05-21T01:38:24;100359.38;;;14.83;100.00
19748;BME280;10032;51.386;12.516;2023-05-21T01:40:59;100335.66;;;14.79;100.00
19748;BME280;10032;51.386;12.516;2023-05-21T01:43:31;100336.47;;;14.74;100.00
19748;BME280;10032;51.386;12.516;2023-05-21T01:45:59;100339.75;;;14.71;100.00
19748;BME280;10032;51.386;12.516;2023-05-21T01:48:27;100343.00;;;14.73;100.00
19748;BME280;10032;51.386;12.516;2023-05-21T01:50:54;100338.66;;;14.72;100.00
19748;BME280;10032;51.386;12.516;2023-05-21T01:53:22;100344.09;;;14.62;100.00
19748;BME280;10032;51.386;12.516;2023-05-21T01:55:47;100341.09;;;14.54;100.00
19748;BME280;10032;51.386;12.516;2023-05-21T01:58:13;100343.53;;;14.45;100.00
19748;BME280;10032;51.386;12.516;2023-05-21T02:00:42;100346.00;;;14.47;100.00
19748;BME280;10032;51.386;12.516;2023-05-21T02:03:10;100341.34;;;14.47;100.00
19748;BME280;10032;51.386;12.516;2023-05-21T02:05:35;100337.81;;;14.52;100.00
19748;BME280;10032;51.386;12.516;2023-05-21T02:08:01;100340.53;;;14.47;100.00
19748;BME280;10032;51.386;12.516;2023-05-21T02:10:29;100342.69;;;14.45;100.00
19748;BME280;10032;51.386;12.516;2023-05-21T02:12:54;100338.91;;;14.41;100.00
19748;BME280;10032;51.386;12.516;2023-05-21T02:15:20;100346.78;;;14.37;100.00
19748;BME280;10032;51.386;12.516;2023-05-21T02:17:46;100346.50;;;14.34;100.00
19748;BME280;10032;51.386;12.516;2023-05-21T02:20:12;100339.69;;;14.36;100.00
19748;BME280;10032;51.386;12.516;2023-05-21T02:22:38;100340.78;;;14.40;100.00
19748;BME280;10032;51.386;12.516;2023-05-21T02:25:05;100333.16;;;14.42;100.00
19748;BME280;10032;51.386;12.516;2023-05-21T02:27:31;100332.88;;;14.39;100.00
19748;BME280;10032;51.386;12.516;2023-05-21T02:29:59;100333.97;;;14.43;100.00
19748;BME280;10032;51.386;12.516;2023-05-21T02:32:25;100332.06;;;14.38;100.00
19748;BME280;10032;51.386;12.516;2023-05-21T02:34:50;100336.16;;;14.31;100.00
19748;BME280;10032;51.386;12.516;2023-05-21T02:37:15;100333.69;;;14.29;100.00
19748;BME280;10032;51.386;12.516;2023-05-21T02:39:41;100331.50;;;14.31;100.00
19748;BME280;10032;51.386;12.516;2023-05-21T02:42:07;100326.03;;;14.31;100.00
19748;BME280;10032;51.386;12.516;2023-05-21T02:44:32;100336.94;;;14.31;100.00
19748;BME280;10032;51.386;12.516;2023-05-21T02:46:58;100337.22;;;14.35;100.00
19748;BME280;10032;51.386;12.516;2023-05-21T02:49:23;100339.13;;;14.29;100.00
19748;BME280;10032;51.386;12.516;2023-05-21T02:51:48;100334.47;;;14.30;100.00
19748;BME280;10032;51.386;12.516;2023-05-21T02:54:14;100336.41;;;14.29;100.00
19748;BME280;10032;51.386;12.516;2023-05-21T02:56:39;100342.97;;;14.28;100.00
19748;BME280;10032;51.386;12.516;2023-05-21T02:59:05;100333.09;;;14.22;100.00
19748;BME280;10032;51.386;12.516;2023-05-21T03:01:30;100330.94;;;14.19;100.00
19748;BME280;10032;51.386;12.516;2023-05-21T03:03:56;100336.91;;;14.21;100.00
19748;BME280;10032;51.386;12.516;2023-05-21T03:06:21;100336.41;;;14.24;100.00
19748;BME280;10032;51.386;12.516;2023-05-21T03:08:46;100335.56;;;14.24;100.00
19748;BME280;10032;51.386;12.516;2023-05-21T03:11:12;100330.94;;;14.24;100.00
19748;BME280;10032;51.386;12.516;2023-05-21T03:13:37;100329.84;;;14.20;100.00
19748;BME280;10032;51.386;12.516;2023-05-21T03:16:03;100330.94;;;14.19;100.00
19748;BME280;10032;51.386;12.516;2023-05-21T03:18:28;100325.97;;;14.16;100.00
19748;BME280;10032;51.386;12.516;2023-05-21T03:20:54;100330.66;;;14.21;100.00
19748;BME280;10032;51.386;12.516;2023-05-21T03:23:19;100324.91;;;14.17;100.00
19748;BME280;10032;51.386;12.516;2023-05-21T03:25:44;100330.88;;;14.14;100.00
19748;BME280;10032;51.386;12.516;2023-05-21T03:28:10;100323.53;;;14.15;100.00
19748;BME280;10032;51.386;12.516;2023-05-21T03:30:38;100324.06;;;14.17;100.00
19748;BME280;10032;51.386;12.516;2023-05-21T03:33:03;100332.50;;;14.10;100.00
19748;BME280;10032;51.386;12.516;2023-05-21T03:35:30;100316.69;;;14.07;100.00
19748;BME280;10032;51.386;12.516;2023-05-21T03:37:59;100323.53;;;14.15;100.00
19748;BME280;10032;51.386;12.516;2023-05-21T03:40:24;100319.47;;;14.17;100.00
19748;BME280;10032;51.386;12.516;2023-05-21T03:42:50;100325.72;;;14.18;100.00
19748;BME280;10032;51.386;12.516;2023-05-21T03:45:15;100313.72;;;14.19;100.00
19748;BME280;10032;51.386;12.516;2023-05-21T03:47:40;100316.72;;;14.17;100.00
19748;BME280;10032;51.386;12.516;2023-05-21T03:50:07;100317.84;;;14.21;100.00
19748;BME280;10032;51.386;12.516;2023-05-21T03:52:33;100316.44;;;14.19;100.00
19748;BME280;10032;51.386;12.516;2023-05-21T03:54:58;100323.28;;;14.21;100.00
19748;BME280;10032;51.386;12.516;2023-05-21T03:57:24;100322.78;;;14.24;100.00
19748;BME280;10032;51.386;12.516;2023-05-21T03:59:49;100325.50;;;14.24;100.00
19748;BME280;10032;51.386;12.516;2023-05-21T04:02:15;100326.03;;;14.21;100.00
19748;BME280;10032;51.386;12.516;2023-05-21T04:04:40;100327.94;;;14.21;100.00
19748;BME280;10032;51.386;12.516;2023-05-21T04:07:07;100335.81;;;14.22;100.00
19748;BME280;10032;51.386;12.516;2023-05-21T04:09:39;100341.84;;;14.24;100.00
19748;BME280;10032;51.386;12.516;2023-05-21T04:12:05;100329.31;;;14.28;100.00
19748;BME280;10032;51.386;12.516;2023-05-21T04:14:32;100338.03;;;14.25;100.00
19748;BME280;10032;51.386;12.516;2023-05-21T04:16:58;100333.44;;;14.36;100.00
19748;BME280;10032;51.386;12.516;2023-05-21T04:19:24;100328.81;;;14.46;100.00
19748;BME280;10032;51.386;12.516;2023-05-21T04:21:49;100328.28;;;14.54;100.00
19748;BME280;10032;51.386;12.516;2023-05-21T04:24:15;100335.09;;;14.57;100.00
19748;BME280;10032;51.386;12.516;2023-05-21T04:26:40;100336.72;;;14.58;100.00
19748;BME280;10032;51.386;12.516;2023-05-21T04:29:06;100345.72;;;14.63;100.00
19748;BME280;10032;51.386;12.516;2023-05-21T04:31:32;100336.75;;;14.68;100.00
19748;BME280;10032;51.386;12.516;2023-05-21T04:33:57;100333.19;;;14.72;100.00
19748;BME280;10032;51.386;12.516;2023-05-21T04:36:23;100341.38;;;14.77;100.00
19748;BME280;10032;51.386;12.516;2023-05-21T04:38:49;100342.47;;;14.86;100.00
19748;BME280;10032;51.386;12.516;2023-05-21T04:41:14;100345.75;;;14.93;100.00
19748;BME280;10032;51.386;12.516;2023-05-21T04:43:43;100336.47;;;15.04;100.00
19748;BME280;10032;51.386;12.516;2023-05-21T04:46:08;100337.56;;;15.08;100.00
19748;BME280;10032;51.386;12.516;2023-05-21T04:48:34;100339.72;;;15.11;100.00
19748;BME280;10032;51.386;12.516;2023-05-21T04:50:59;100344.13;;;15.12;100.00
19748;BME280;10032;51.386;12.516;2023-05-21T04:53:25;100346.81;;;15.17;100.00
19748;BME280;10032;51.386;12.516;2023-05-21T04:55:50;100343.28;;;15.17;100.00
19748;BME280;10032;51.386;12.516;2023-05-21T04:58:15;100337.25;;;15.20;100.00
19748;BME280;10032;51.386;12.516;2023-05-21T05:00:44;100341.34;;;15.27;100.00
19748;BME280;10032;51.386;12.516;2023-05-21T05:03:11;100330.44;;;15.37;100.00
19748;BME280;10032;51.386;12.516;2023-05-21T05:05:36;100335.88;;;15.52;100.00
19748;BME280;10032;51.386;12.516;2023-05-21T05:08:02;100329.84;;;15.60;100.00
19748;BME280;10032;51.386;12.516;2023-05-21T05:10:28;100333.63;;;15.64;100.00
19748;BME280;10032;51.386;12.516;2023-05-21T05:12:53;100330.69;;;15.51;100.00
19748;BME280;10032;51.386;12.516;2023-05-21T05:15:19;100333.97;;;15.58;100.00
19748;BME280;10032;51.386;12.516;2023-05-21T05:17:45;100330.66;;;15.61;100.00
19748;BME280;10032;51.386;12.516;2023-05-21T05:20:12;100328.72;;;15.71;100.00
19748;BME280;10032;51.386;12.516;2023-05-21T05:22:38;100327.09;;;15.65;100.00
19748;BME280;10032;51.386;12.516;2023-05-21T05:25:04;100331.72;;;15.70;100.00
19748;BME280;10032;51.386;12.516;2023-05-21T05:27:30;100330.88;;;15.74;100.00
19748;BME280;10032;51.386;12.516;2023-05-21T05:29:55;100330.59;;;15.76;100.00
19748;BME280;10032;51.386;12.516;2023-05-21T05:32:21;100333.06;;;15.77;100.00
19748;BME280;10032;51.386;12.516;2023-05-21T05:34:46;100323.19;;;15.86;100.00
19748;BME280;10032;51.386;12.516;2023-05-21T05:37:11;100318.47;;;16.02;100.00
19748;BME280;10032;51.386;12.516;2023-05-21T05:39:37;100320.34;;;16.06;100.00
19748;BME280;10032;51.386;12.516;2023-05-21T05:42:02;100326.31;;;16.18;100.00
19748;BME280;10032;51.386;12.516;2023-05-21T05:44:28;100327.03;;;16.39;100.00
19748;BME280;10032;51.386;12.516;2023-05-21T05:46:53;100327.75;;;16.54;100.00
19748;BME280;10032;51.386;12.516;2023-05-21T05:49:19;100323.75;;;16.75;100.00
19748;BME280;10032;51.386;12.516;2023-05-21T05:51:44;100319.19;;;16.99;100.00
19748;BME280;10032;51.386;12.516;2023-05-21T05:54:09;100319.47;;;17.26;100.00
19748;BME280;10032;51.386;12.516;2023-05-21T05:56:35;100314.72;;;17.37;100.00
19748;BME280;10032;51.386;12.516;2023-05-21T05:59:00;100318.19;;;17.47;100.00
19748;BME280;10032;51.386;12.516;2023-05-21T06:01:26;100314.00;;;17.55;100.00
19748;BME280;10032;51.386;12.516;2023-05-21T06:03:52;100315.41;;;17.76;100.00
19748;BME280;10032;51.386;12.516;2023-05-21T06:06:17;100310.03;;;17.89;100.00
19748;BME280;10032;51.386;12.516;2023-05-21T06:08:43;100314.78;;;18.02;100.00
19748;BME280;10032;51.386;12.516;2023-05-21T06:11:09;100319.56;;;18.15;100.00
19748;BME280;10032;51.386;12.516;2023-05-21T06:13:35;100314.41;;;18.32;100.00
19748;BME280;10032;51.386;12.516;2023-05-21T06:16:02;100318.13;;;18.41;100.00
19748;BME280;10032;51.386;12.516;2023-05-21T06:18:27;100312.47;;;18.51;100.00
19748;BME280;10032;51.386;12.516;2023-05-21T06:20:53;100309.44;;;18.53;100.00
19748;BME280;10032;51.386;12.516;2023-05-21T06:23:18;100313.75;;;18.59;100.00
19748;BME280;10032;51.386;12.516;2023-05-21T06:25:43;100305.03;;;18.52;100.00
19748;BME280;10032;51.386;12.516;2023-05-21T06:28:09;100298.19;;;18.68;100.00
19748;BME280;10032;51.386;12.516;2023-05-21T06:30:34;100302.66;;;18.82;100.00
19748;BME280;10032;51.386;12.516;2023-05-21T06:33:00;100307.97;;;18.92;100.00
19748;BME280;10032;51.386;12.516;2023-05-21T06:35:25;100311.66;;;19.01;100.00
19748;BME280;10032;51.386;12.516;2023-05-21T06:37:51;100315.34;;;19.10;100.00
19748;BME280;10032;51.386;12.516;2023-05-21T06:40:16;100310.75;;;19.24;100.00
19748;BME280;10032;51.386;12.516;2023-05-21T06:42:42;100311.25;;;19.26;100.00
19748;BME280;10032;51.386;12.516;2023-05-21T06:45:08;100311.75;;;19.28;100.00
19748;BME280;10032;51.386;12.516;2023-05-21T06:47:33;100307.69;;;19.39;100.00
19748;BME280;10032;51.386;12.516;2023-05-21T06:49:58;100315.06;;;19.57;100.00
19748;BME280;10032;51.386;12.516;2023-05-21T06:52:24;100321.16;;;19.81;100.00
19748;BME280;10032;51.386;12.516;2023-05-21T06:54:51;100314.22;;;20.11;100.00
19748;BME280;10032;51.386;12.516;2023-05-21T06:57:16;100314.81;;;20.35;100.00
19748;BME280;10032;51.386;12.516;2023-05-21T06:59:42;100315.00;;;20.38;100.00
19748;BME280;10032;51.386;12.516;2023-05-21T07:02:07;100304.81;;;20.39;100.00
19748;BME280;10032;51.386;12.516;2023-05-21T07:04:33;100303.34;;;20.55;100.00
19748;BME280;10032;51.386;12.516;2023-05-21T07:06:59;100307.16;;;20.67;100.00
19748;BME280;10032;51.386;12.516;2023-05-21T07:09:25;100314.13;;;20.87;100.00
19748;BME280;10032;51.386;12.516;2023-05-21T07:11:50;100308.06;;;21.20;100.00
19748;BME280;10032;51.386;12.516;2023-05-21T07:14:17;100316.50;;;21.54;100.00
19748;BME280;10032;51.386;12.516;2023-05-21T07:16:43;100315.03;;;21.87;100.00
19748;BME280;10032;51.386;12.516;2023-05-21T07:19:08;100309.09;;;22.19;100.00
19748;BME280;10032;51.386;12.516;2023-05-21T07:21:33;100302.31;;;22.34;100.00
19748;BME280;10032;51.386;12.516;2023-05-21T07:23:59;100300.25;;;22.56;100.00
19748;BME280;10032;51.386;12.516;2023-05-21T07:26:24;100307.22;;;22.79;100.00
19748;BME280;10032;51.386;12.516;2023-05-21T07:28:51;100297.47;;;22.82;100.00
19748;BME280;10032;51.386;12.516;2023-05-21T07:31:16;100302.16;;;22.98;100.00
19748;BME280;10032;51.386;12.516;2023-05-21T07:33:42;100305.22;;;23.31;100.00
19748;BME280;10032;51.386;12.516;2023-05-21T07:36:07;100304.09;;;23.23;100.00
19748;BME280;10032;51.386;12.516;2023-05-21T07:38:32;100298.59;;;23.61;100.00
19748;BME280;10032;51.386;12.516;2023-05-21T07:40:58;100300.69;;;23.64;100.00
19748;BME280;10032;51.386;12.516;2023-05-21T07:43:24;100297.69;;;23.77;100.00
19748;BME280;10032;51.386;12.516;2023-05-21T07:45:49;100297.31;;;23.58;100.00
19748;BME280;10032;51.386;12.516;2023-05-21T07:48:14;100301.75;;;23.80;100.00
19748;BME280;10032;51.386;12.516;2023-05-21T07:50:40;100300.38;;;24.03;100.00
19748;BME280;10032;51.386;12.516;2023-05-21T07:53:05;100302.41;;;24.14;100.00
19748;BME280;10032;51.386;12.516;2023-05-21T07:55:31;100292.03;;;24.32;100.00
19748;BME280;10032;51.386;12.516;2023-05-21T07:57:56;100289.06;;;24.37;100.00
19748;BME280;10032;51.386;12.516;2023-05-21T08:00:22;100296.72;;;24.60;100.00
19748;BME280;10032;51.386;12.516;2023-05-21T08:02:48;100290.31;;;24.68;100.00
19748;BME280;10032;51.386;12.516;2023-05-21T08:05:13;100293.88;;;24.89;100.00
19748;BME280;10032;51.386;12.516;2023-05-21T08:07:40;100287.41;;;24.97;100.00
19748;BME280;10032;51.386;12.516;2023-05-21T08:10:06;100294.84;;;25.05;100.00
19748;BME280;10032;51.386;12.516;2023-05-21T08:12:32;100282.47;;;25.03;100.00
19748;BME280;10032;51.386;12.516;2023-05-21T08:14:57;100287.31;;;25.26;100.00
19748;BME280;10032;51.386;12.516;2023-05-21T08:17:23;100293.28;;;25.16;100.00
19748;BME280;10032;51.386;12.516;2023-05-21T08:19:49;100293.06;;;25.21;100.00
19748;BME280;10032;51.386;12.516;2023-05-21T08:22:14;100298.22;;;25.43;100.00
19748;BME280;10032;51.386;12.516;2023-05-21T08:24:39;100298.22;;;25.43;100.00
19748;BME280;10032;51.386;12.516;2023-05-21T08:27:05;100292.44;;;25.48;100.00
19748;BME280;10032;51.386;12.516;2023-05-21T08:29:32;100297.78;;;25.65;100.00
19748;BME280;10032;51.386;12.516;2023-05-21T08:31:57;100297.34;;;25.99;100.00
19748;BME280;10032;51.386;12.516;2023-05-21T08:34:23;100287.66;;;26.05;99.40
19748;BME280;10032;51.386;12.516;2023-05-21T08:36:48;100289.25;;;26.06;100.00
19748;BME280;10032;51.386;12.516;2023-05-21T08:39:14;100289.44;;;26.25;99.56
19748;BME280;10032;51.386;12.516;2023-05-21T08:41:40;100282.75;;;26.14;95.82
19748;BME280;10032;51.386;12.516;2023-05-21T08:44:11;100284.91;;;26.33;96.52
19748;BME280;10032;51.386;12.516;2023-05-21T08:46:39;100274.94;;;26.44;97.08
19748;BME280;10032;51.386;12.516;2023-05-21T08:49:10;100282.81;;;26.42;95.73
19748;BME280;10032;51.386;12.516;2023-05-21T08:51:36;100274.59;;;26.45;95.24
19748;BME280;10032;51.386;12.516;2023-05-21T08:54:03;100278.56;;;26.32;91.31
19748;BME280;10032;51.386;12.516;2023-05-21T08:56:31;100270.63;;;26.46;93.29
19748;BME280;10032;51.386;12.516;2023-05-21T08:58:58;100269.69;;;26.54;92.06
19748;BME280;10032;51.386;12.516;2023-05-21T09:01:24;100280.38;;;26.64;92.09
19748;BME280;10032;51.386;12.516;2023-05-21T09:03:51;100278.63;;;26.60;89.50
19748;BME280;10032;51.386;12.516;2023-05-21T09:06:18;100279.38;;;26.84;90.03
19748;BME280;10032;51.386;12.516;2023-05-21T09:08:44;100277.28;;;26.81;87.83
19748;BME280;10032;51.386;12.516;2023-05-21T09:11:14;100269.13;;;26.88;89.28
19748;BME280;10032;51.386;12.516;2023-05-21T09:13:42;100273.19;;;27.18;89.41
19748;BME280;10032;51.386;12.516;2023-05-21T09:16:08;100275.69;;;27.23;88.80
19748;BME280;10032;51.386;12.516;2023-05-21T09:18:34;100275.19;;;27.33;88.77
19748;BME280;10032;51.386;12.516;2023-05-21T09:21:26;100269.78;;;27.40;86.60
19748;BME280;10032;51.386;12.516;2023-05-21T09:23:55;100275.97;;;27.34;86.30
19748;BME280;10032;51.386;12.516;2023-05-21T09:26:21;100271.13;;;27.46;81.50
19748;BME280;10032;51.386;12.516;2023-05-21T09:28:48;100277.44;;;27.74;84.14
19748;BME280;10032;51.386;12.516;2023-05-21T09:31:13;100274.47;;;27.98;82.57
19748;BME280;10032;51.386;12.516;2023-05-21T09:33:45;100270.19;;;27.85;79.77
19748;BME280;10032;51.386;12.516;2023-05-21T09:36:11;100268.41;;;28.12;81.32
19748;BME280;10032;51.386;12.516;2023-05-21T09:38:37;100278.91;;;28.18;78.92
19748;BME280;10032;51.386;12.516;2023-05-21T09:41:05;100270.03;;;28.47;79.25
19748;BME280;10032;51.386;12.516;2023-05-21T09:43:31;100260.94;;;28.50;79.25
19748;BME280;10032;51.386;12.516;2023-05-21T09:45:58;100270.41;;;28.65;77.84
19748;BME280;10032;51.386;12.516;2023-05-21T09:48:35;100265.91;;;28.41;73.94
19748;BME280;10032;51.386;12.516;2023-05-21T09:51:11;100263.66;;;28.85;78.04
19748;BME280;10032;51.386;12.516;2023-05-21T09:56:09;100254.88;;;28.83;77.00
19748;BME280;10032;51.386;12.516;2023-05-21T09:58:36;100257.66;;;29.02;75.58
19748;BME280;10032;51.386;12.516;2023-05-21T10:01:02;100259.91;;;29.15;74.85
19748;BME280;10032;51.386;12.516;2023-05-21T10:03:28;100248.69;;;29.34;72.91
19748;BME280;10032;51.386;12.516;2023-05-21T10:05:57;100256.19;;;29.53;72.67
19748;BME280;10032;51.386;12.516;2023-05-21T10:08:26;100254.34;;;29.83;70.26
19748;BME280;10032;51.386;12.516;2023-05-21T10:10:53;100244.13;;;29.94;71.46
19748;BME280;10032;51.386;12.516;2023-05-21T10:13:20;100246.53;;;29.47;66.56
19748;BME280;10032;51.386;12.516;2023-05-21T10:15:56;100252.75;;;29.59;68.49
19748;BME280;10032;51.386;12.516;2023-05-21T10:18:23;100250.69;;;29.56;68.96
19748;BME280;10032;51.386;12.516;2023-05-21T10:20:50;100248.56;;;29.72;68.17
19748;BME280;10032;51.386;12.516;2023-05-21T10:23:17;100239.22;;;29.61;64.90
19748;BME280;10032;51.386;12.516;2023-05-21T10:25:43;100235.78;;;29.71;63.46
19748;BME280;10032;51.386;12.516;2023-05-21T10:28:10;100233.59;;;29.84;63.26
19748;BME280;10032;51.386;12.516;2023-05-21T10:30:37;100234.78;;;30.09;63.25
19748;BME280;10032;51.386;12.516;2023-05-21T10:33:03;100235.97;;;30.37;61.43
19748;BME280;10032;51.386;12.516;2023-05-21T10:35:28;100231.41;;;30.52;59.92
19748;BME280;10032;51.386;12.516;2023-05-21T10:37:56;100226.88;;;30.14;56.90
19748;BME280;10032;51.386;12.516;2023-05-21T10:40:21;100223.69;;;30.12;58.96
19748;BME280;10032;51.386;12.516;2023-05-21T10:54:39;100221.22;;;30.66;52.18
19748;BME280;10032;51.386;12.516;2023-05-21T10:59:48;100221.53;;;30.61;49.11
19748;BME280;10032;51.386;12.516;2023-05-21T11:02:14;100227.34;;;30.75;49.07
19748;BME280;10032;51.386;12.516;2023-05-21T11:04:43;100218.94;;;30.75;48.41
19748;BME280;10032;51.386;12.516;2023-05-21T11:07:10;100211.91;;;30.92;49.86
19748;BME280;10032;51.386;12.516;2023-05-21T11:09:36;100209.13;;;31.28;50.06
19748;BME280;10032;51.386;12.516;2023-05-21T11:12:02;100218.63;;;31.20;47.96
19748;BME280;10032;51.386;12.516;2023-05-21T11:19:44;100204.28;;;31.29;47.99
19748;BME280;10032;51.386;12.516;2023-05-21T11:22:25;100207.66;;;31.05;47.03
19748;BME280;10032;51.386;12.516;2023-05-21T11:24:55;100208.19;;;31.17;47.04
19748;BME280;10032;51.386;12.516;2023-05-21T11:27:37;100209.78;;;30.82;46.41
19748;BME280;10032;51.386;12.516;2023-05-21T11:30:04;100203.78;;;30.80;47.34
19748;BME280;10032;51.386;12.516;2023-05-21T11:32:35;100208.91;;;30.45;45.43
19748;BME280;10032;51.386;12.516;2023-05-21T11:35:01;100196.81;;;30.37;46.79
19748;BME280;10032;51.386;12.516;2023-05-21T11:37:30;100206.78;;;30.64;46.37
19748;BME280;10032;51.386;12.516;2023-05-21T11:40:22;100200.31;;;30.93;46.48
19748;BME280;10032;51.386;12.516;2023-05-21T11:42:51;100200.44;;;31.04;46.88
19748;BME280;10032;51.386;12.516;2023-05-21T11:45:21;100205.16;;;30.63;46.62
19748;BME280;10032;51.386;12.516;2023-05-21T11:47:49;100199.66;;;30.67;46.34
19748;BME280;10032;51.386;12.516;2023-05-21T11:50:17;100207.00;;;30.19;46.07
19748;BME280;10032;51.386;12.516;2023-05-21T11:52:43;100201.09;;;30.02;46.32
19748;BME280;10032;51.386;12.516;2023-05-21T11:55:09;100206.00;;;29.56;46.43
19748;BME280;10032;51.386;12.516;2023-05-21T11:57:35;100202.84;;;29.58;47.33
19748;BME280;10032;51.386;12.516;2023-05-21T12:00:02;100206.13;;;29.41;46.93
19748;BME280;10032;51.386;12.516;2023-05-21T12:02:38;100207.19;;;29.55;47.33
19748;BME280;10032;51.386;12.516;2023-05-21T12:05:04;100195.56;;;29.53;46.73
19748;BME280;10032;51.386;12.516;2023-05-21T12:07:30;100196.13;;;29.62;47.16
19748;BME280;10032;51.386;12.516;2023-05-21T12:09:58;100197.84;;;29.48;47.78
19748;BME280;10032;51.386;12.516;2023-05-21T12:12:25;100196.00;;;29.33;48.29
19748;BME280;10032;51.386;12.516;2023-05-21T12:14:53;100189.69;;;28.94;47.85
19748;BME280;10032;51.386;12.516;2023-05-21T12:17:22;100196.56;;;28.78;48.05
19748;BME280;10032;51.386;12.516;2023-05-21T12:19:51;100186.91;;;28.94;48.28
19748;BME280;10032;51.386;12.516;2023-05-21T12:22:17;100188.84;;;28.90;48.38
19748;BME280;10032;51.386;12.516;2023-05-21T12:24:43;100181.38;;;28.75;48.82
19748;BME280;10032;51.386;12.516;2023-05-21T12:27:09;100186.00;;;28.68;48.90
19748;BME280;10032;51.386;12.516;2023-05-21T12:29:43;100185.09;;;28.83;49.39
19748;BME280;10032;51.386;12.516;2023-05-21T12:32:11;100182.75;;;29.04;49.67
19748;BME280;10032;51.386;12.516;2023-05-21T12:34:50;100184.28;;;29.01;49.12
19748;BME280;10032;51.386;12.516;2023-05-21T12:37:27;100188.75;;;29.28;49.27
19748;BME280;10032;51.386;12.516;2023-05-21T12:40:01;100191.28;;;29.37;49.59
19748;BME280;10032;51.386;12.516;2023-05-21T12:42:32;100176.25;;;29.45;50.21
19748;BME280;10032;51.386;12.516;2023-05-21T12:45:05;100184.75;;;29.74;49.62
19748;BME280;10032;51.386;12.516;2023-05-21T12:47:31;100190.34;;;29.74;49.48
19748;BME280;10032;51.386;12.516;2023-05-21T12:50:02;100187.25;;;29.57;47.84
19748;BME280;10032;51.386;12.516;2023-05-21T12:52:28;100180.28;;;29.47;49.13
19748;BME280;10032;51.386;12.516;2023-05-21T12:54:55;100184.25;;;29.46;47.29